Time;durP1;ratioP1;P1;durP2;ratioP2;P2;SDS_P1;SDS_P2;PMS_P1;PMS_P2;Temp;Humidity;BMP_temperature;BMP_pressure;BME280_temperature;BME280_humidity;BME280_pressure;Samples;Min_cycle;Max_cycle;Signal;HPM_P1;HPM_P2
2024/02/21 00:00:56;;;;;;;9.47;3.03;;;;;;;6.02;84.94;98618.16;6316097;28;20692;-57
2024/02/21 00:03:58;;;;;;;9.00;2.40;;;;;;;6.06;81.13;98630.81;6306507;28;20673;-56
2024/02/21 00:07:00;;;;;;;10.60;2.60;;;;;;;6.25;80.63;98612.66;6312998;28;20208;-57
2024/02/21 00:10:03;;;;;;;7.10;2.30;;;;;;;6.26;81.07;98614.31;6306559;28;20572;-55
2024/02/21 00:13:05;;;;;;;7.93;2.87;;;;;;;6.29;78.78;98609.44;6307989;28;20203;-56
2024/02/21 00:16:07;;;;;;;9.67;2.50;;;;;;;6.31;78.58;98612.72;6305154;28;20258;-57
2024/02/21 00:19:10;;;;;;;5.97;2.37;;;;;;;6.23;79.58;98604.91;6307580;28;20682;-56
2024/02/21 00:22:12;;;;;;;6.27;2.10;;;;;;;5.94;84.63;98577.59;6303420;28;20684;-56
2024/02/21 00:25:14;;;;;;;5.00;2.50;;;;;;;6.20;78.73;98605.28;6310569;28;20215;-55
2024/02/21 00:28:17;;;;;;;9.30;2.40;;;;;;;6.20;80.03;98610.56;6313312;28;20201;-56
2024/02/21 00:31:19;;;;;;;5.80;2.30;;;;;;;6.06;84.61;98607.03;6301771;28;20769;-54
2024/02/21 00:34:21;;;;;;;4.33;2.13;;;;;;;6.00;85.13;98601.66;6314263;28;20200;-57
2024/02/21 00:37:23;;;;;;;7.73;2.40;;;;;;;5.94;81.83;98584.72;6306445;28;20747;-55
2024/02/21 00:40:26;;;;;;;4.53;2.30;;;;;;;6.18;81.26;98612.59;6309529;28;20193;-55
2024/02/21 00:43:28;;;;;;;6.70;2.57;;;;;;;6.27;77.56;98595.59;6306848;28;20197;-56
2024/02/21 00:46:30;;;;;;;5.40;2.40;;;;;;;6.32;80.56;98603.78;6303330;28;20292;-55
2024/02/21 00:49:32;;;;;;;7.97;2.60;;;;;;;6.37;77.36;98592.63;6311950;28;20244;-55
2024/02/21 00:52:34;;;;;;;5.90;2.13;;;;;;;6.34;78.71;98592.97;6314134;28;20284;-56
2024/02/21 00:55:36;;;;;;;5.57;2.10;;;;;;;6.15;81.48;98589.97;6312515;28;20184;-54
2024/02/21 00:58:39;;;;;;;8.83;2.50;;;;;;;6.04;83.36;98581.75;6308110;28;20193;-56
2024/02/21 01:01:42;;;;;;;6.87;2.40;;;;;;;6.02;87.55;98597.81;6301986;28;20209;-57
2024/02/21 01:04:45;;;;;;;9.13;2.83;;;;;;;6.01;78.18;98550.38;6301466;28;20227;-57
2024/02/21 01:07:47;;;;;;;7.17;2.43;;;;;;;6.23;79.11;98577.63;6301982;28;20214;-57
2024/02/21 01:10:49;;;;;;;6.47;2.20;;;;;;;6.26;78.40;98586.03;6302721;28;20209;-56
2024/02/21 01:13:51;;;;;;;6.90;2.20;;;;;;;6.18;79.28;98570.28;6307717;28;20263;-57
2024/02/21 01:16:54;;;;;;;8.20;2.77;;;;;;;6.33;78.17;98572.84;6307005;28;20192;-56
2024/02/21 01:19:57;;;;;;;6.70;2.63;;;;;;;6.25;77.26;98576.44;6308162;28;20303;-55
2024/02/21 01:22:59;;;;;;;7.37;2.20;;;;;;;6.57;76.29;98574.22;6307627;28;20191;-56
2024/02/21 01:26:01;;;;;;;6.43;2.37;;;;;;;6.31;80.85;98570.38;6313732;28;20852;-56
2024/02/21 01:29:03;;;;;;;5.53;2.20;;;;;;;6.25;81.03;98568.50;6316735;28;20193;-54
2024/02/21 01:32:06;;;;;;;7.03;2.70;;;;;;;6.15;82.10;98563.53;6297822;28;20199;-55
2024/02/21 01:35:08;;;;;;;6.97;2.47;;;;;;;6.22;79.07;98558.31;6311079;28;20196;-57
2024/02/21 01:38:12;;;;;;;7.17;2.27;;;;;;;6.17;83.16;98544.84;6305457;28;20576;-55
2024/02/21 01:41:16;;;;;;;9.77;2.63;;;;;;;6.23;82.11;98559.94;6306084;28;20233;-57
2024/02/21 01:44:18;;;;;;;9.27;2.67;;;;;;;6.14;80.99;98543.38;6303120;28;20264;-56
2024/02/21 01:47:20;;;;;;;7.53;2.77;;;;;;;6.01;82.64;98539.81;6301082;28;20585;-54
2024/02/21 01:50:23;;;;;;;8.87;2.40;;;;;;;6.04;81.30;98542.91;6304534;28;20271;-57
2024/02/21 01:53:30;;;;;;;8.73;2.67;;;;;;;6.01;81.65;98535.34;6306973;28;20189;-56
2024/02/21 01:56:33;;;;;;;7.27;2.67;;;;;;;6.19;78.73;98548.09;6298933;28;20539;-57
2024/02/21 01:59:35;;;;;;;6.33;2.50;;;;;;;6.31;76.16;98537.81;6314808;28;20833;-55
2024/02/21 02:02:38;;;;;;;5.73;2.87;;;;;;;6.29;76.32;98522.13;6297839;28;20195;-56
2024/02/21 02:05:40;;;;;;;10.97;2.10;;;;;;;6.18;80.44;98526.13;6304561;28;20675;-53
2024/02/21 02:08:42;;;;;;;9.73;2.20;;;;;;;6.02;82.08;98528.25;6304745;28;20629;-55
2024/02/21 02:11:45;;;;;;;4.17;2.10;;;;;;;6.14;78.39;98509.00;6303009;28;20198;-56
2024/02/21 02:14:58;;;;;;;7.17;2.53;;;;;;;6.17;77.11;98515.75;6303661;28;20206;-56
2024/02/21 02:18:00;;;;;;;6.67;1.90;;;;;;;6.04;76.77;98486.53;6300362;28;20568;-57
2024/02/21 02:21:10;;;;;;;9.80;2.33;;;;;;;6.16;77.94;98508.81;6301289;28;20188;-56
2024/02/21 02:24:14;;;;;;;6.90;1.90;;;;;;;6.19;77.05;98511.88;6315831;28;20191;-56
2024/02/21 02:27:16;;;;;;;5.07;1.90;;;;;;;6.19;77.10;98511.06;6296908;28;20571;-57
2024/02/21 02:30:18;;;;;;;10.10;2.50;;;;;;;5.83;81.15;98472.31;6308469;28;20213;-58
2024/02/21 02:33:20;;;;;;;8.03;2.10;;;;;;;6.03;78.80;98516.66;6307083;28;20204;-56
2024/02/21 02:36:23;;;;;;;6.03;2.10;;;;;;;6.15;76.74;98501.88;6308661;28;20667;-55
2024/02/21 02:39:25;;;;;;;5.33;1.87;;;;;;;6.20;78.13;98502.09;6303619;28;20848;-56
2024/02/21 02:42:27;;;;;;;5.60;2.27;;;;;;;6.05;80.89;98496.09;6302738;28;20237;-56
2024/02/21 02:45:29;;;;;;;7.93;2.00;;;;;;;6.03;77.92;98495.50;6299971;28;20647;-55
2024/02/21 02:48:31;;;;;;;8.57;2.13;;;;;;;6.18;76.28;98491.72;6306999;28;20205;-56
2024/02/21 02:51:34;;;;;;;8.10;2.17;;;;;;;6.10;78.38;98493.69;6294824;28;20213;-54
2024/02/21 02:54:36;;;;;;;8.43;2.30;;;;;;;6.13;78.86;98498.59;6302304;28;20675;-56
2024/02/21 02:57:38;;;;;;;4.77;1.93;;;;;;;6.15;79.42;98491.28;6296077;28;20202;-56
2024/02/21 03:00:40;;;;;;;6.87;2.33;;;;;;;5.90;81.02;98488.22;6309418;28;20570;-57
2024/02/21 03:03:42;;;;;;;7.40;2.53;;;;;;;6.05;80.66;98502.19;6308269;28;20736;-56
2024/02/21 03:06:44;;;;;;;7.40;2.33;;;;;;;5.82;82.11;98485.75;6299980;28;20679;-56
2024/02/21 03:09:46;;;;;;;6.30;2.00;;;;;;;5.89;86.09;98495.34;6302706;28;20294;-57
2024/02/21 03:12:49;;;;;;;5.57;2.33;;;;;;;5.81;85.11;98497.31;6304272;28;20204;-55
2024/02/21 03:15:51;;;;;;;9.93;2.73;;;;;;;5.82;80.99;98480.44;6303635;28;20672;-59
2024/02/21 03:18:53;;;;;;;2.37;1.70;;;;;;;5.87;81.19;98493.91;6291938;28;20200;-56
2024/02/21 03:21:55;;;;;;;7.40;2.53;;;;;;;5.93;79.98;98487.88;6294006;28;20194;-56
2024/02/21 03:24:57;;;;;;;6.17;1.97;;;;;;;5.99;79.26;98494.22;6302906;28;20198;-55
2024/02/21 03:28:00;;;;;;;4.80;2.27;;;;;;;6.08;79.76;98490.44;6308466;28;20274;-57
2024/02/21 03:31:02;;;;;;;5.13;1.87;;;;;;;6.00;82.23;98498.50;6304292;28;20326;-56
2024/02/21 03:34:04;;;;;;;4.77;1.77;;;;;;;6.00;81.21;98495.84;6303989;28;20198;-55
2024/02/21 03:37:06;;;;;;;5.20;2.00;;;;;;;5.91;83.55;98505.72;6297359;28;20660;-56
2024/02/21 03:40:09;;;;;;;6.60;2.10;;;;;;;5.60;89.91;98475.19;6303217;28;20854;-55
2024/02/21 03:43:11;;;;;;;5.03;1.90;;;;;;;5.58;92.76;98489.59;6306857;28;20196;-55
2024/02/21 03:46:15;;;;;;;6.57;2.23;;;;;;;5.70;85.54;98475.66;6299490;28;20232;-55
2024/02/21 03:49:18;;;;;;;6.37;1.50;;;;;;;5.92;83.38;98500.28;6299664;28;20189;-55
2024/02/21 03:52:20;;;;;;;5.80;2.33;;;;;;;5.84;83.55;98484.53;6298524;28;20208;-55
2024/02/21 03:55:22;;;;;;;6.80;2.20;;;;;;;5.64;84.50;98479.06;6315247;28;20195;-56
2024/02/21 03:58:24;;;;;;;6.50;1.90;;;;;;;5.62;89.39;98491.69;6314527;28;20284;-56
2024/02/21 04:01:26;;;;;;;6.37;2.17;;;;;;;5.44;93.84;98493.94;6307130;28;20688;-55
2024/02/21 04:04:29;;;;;;;7.70;2.17;;;;;;;5.17;97.29;98495.47;6313775;28;20292;-57
2024/02/21 04:07:31;;;;;;;8.43;2.67;;;;;;;5.05;96.25;98487.25;6308385;28;20214;-56
2024/02/21 04:10:33;;;;;;;5.20;2.73;;;;;;;5.11;96.15;98481.19;6309792;28;20800;-55
2024/02/21 04:13:35;;;;;;;6.43;2.10;;;;;;;4.99;99.20;98484.53;6306753;28;20692;-56
2024/02/21 04:16:39;;;;;;;8.33;2.30;;;;;;;4.99;97.31;98474.78;6301477;28;20313;-56
2024/02/21 04:19:41;;;;;;;5.83;2.07;;;;;;;5.12;96.29;98479.38;6298371;28;20196;-55
2024/02/21 04:22:44;;;;;;;4.47;2.00;;;;;;;4.87;97.95;98466.50;6296282;28;20220;-57
2024/02/21 04:25:46;;;;;;;6.33;2.07;;;;;;;5.21;90.45;98475.63;6307273;28;20697;-55
2024/02/21 04:28:49;;;;;;;6.37;1.80;;;;;;;5.31;88.12;98478.75;6310585;28;20190;-56
2024/02/21 04:31:51;;;;;;;8.70;1.87;;;;;;;5.30;88.28;98473.69;6310854;28;20260;-54
2024/02/21 04:34:53;;;;;;;4.37;2.33;;;;;;;5.26;86.54;98460.03;6303547;28;20196;-57
2024/02/21 04:37:56;;;;;;;3.30;1.80;;;;;;;5.24;92.29;98464.69;6307069;28;20616;-56
2024/02/21 04:40:58;;;;;;;5.97;1.73;;;;;;;5.16;91.75;98470.91;6305931;28;20225;-55
2024/02/21 04:44:01;;;;;;;6.30;1.93;;;;;;;5.10;92.01;98474.28;6310461;28;20232;-55
2024/02/21 04:47:04;;;;;;;7.90;2.00;;;;;;;5.20;85.36;98471.34;6310096;28;20196;-57
2024/02/21 04:50:06;;;;;;;10.50;2.43;;;;;;;5.07;89.93;98460.63;6308205;28;20669;-56
2024/02/21 04:53:08;;;;;;;5.67;1.80;;;;;;;5.04;92.92;98474.22;6314745;28;20207;-55
2024/02/21 04:56:11;;;;;;;5.23;2.07;;;;;;;4.92;92.41;98469.41;6313069;28;20182;-57
2024/02/21 04:59:13;;;;;;;3.43;1.53;;;;;;;4.97;92.00;98468.03;6303278;28;20665;-56
2024/02/21 05:02:15;;;;;;;7.30;1.67;;;;;;;5.08;90.71;98475.50;6301074;28;20229;-56
2024/02/21 05:05:17;;;;;;;7.93;2.37;;;;;;;5.01;91.08;98459.56;6308460;28;20194;-54
2024/02/21 05:08:20;;;;;;;4.90;2.00;;;;;;;5.13;90.11;98455.44;6304224;28;20204;-55
2024/02/21 05:11:22;;;;;;;4.70;1.60;;;;;;;5.04;91.17;98455.75;6307590;28;20193;-55
2024/02/21 05:14:26;;;;;;;4.67;2.00;;;;;;;5.01;90.61;98458.75;6302419;28;20191;-56
2024/02/21 05:17:28;;;;;;;5.97;1.77;;;;;;;5.18;86.49;98452.25;6307706;28;20689;-56
2024/02/21 05:20:31;;;;;;;5.27;1.73;;;;;;;5.11;88.57;98446.06;6312168;28;20188;-55
2024/02/21 05:23:33;;;;;;;3.10;1.80;;;;;;;5.00;88.93;98444.72;6305463;28;20204;-55
2024/02/21 05:26:36;;;;;;;3.23;1.40;;;;;;;4.79;94.45;98423.59;6311571;28;20215;-56
2024/02/21 05:29:38;;;;;;;4.97;1.50;;;;;;;4.99;93.64;98437.81;6299924;28;20196;-56
2024/02/21 05:32:40;;;;;;;5.83;1.90;;;;;;;5.11;83.69;98438.94;6305824;28;20301;-56
2024/02/21 05:35:42;;;;;;;6.10;1.70;;;;;;;5.31;83.82;98433.84;6305459;28;20661;-55
2024/02/21 05:38:44;;;;;;;5.33;1.57;;;;;;;5.33;86.30;98431.84;6306084;28;20734;-56
2024/02/21 05:41:46;;;;;;;5.13;1.90;;;;;;;5.55;78.48;98435.28;6308184;28;20595;-56
2024/02/21 05:44:48;;;;;;;6.83;1.40;;;;;;;5.60;82.01;98422.31;6301527;28;20279;-56
2024/02/21 05:47:50;;;;;;;4.67;1.60;;;;;;;5.50;83.52;98435.03;6304637;28;20273;-55
2024/02/21 05:50:53;;;;;;;5.37;1.47;;;;;;;5.67;77.54;98430.31;6312402;28;20796;-56
2024/02/21 05:53:55;;;;;;;2.47;1.57;;;;;;;5.79;78.03;98428.75;6316644;28;20192;-57
2024/02/21 05:56:57;;;;;;;4.00;1.53;;;;;;;5.76;79.59;98425.69;6313185;28;20184;-55
2024/02/21 05:59:59;;;;;;;4.10;1.40;;;;;;;6.13;73.62;98420.06;6308460;28;20195;-56
2024/02/21 06:03:02;;;;;;;3.83;1.40;;;;;;;6.07;78.17;98407.63;6301487;28;20286;-55
2024/02/21 06:06:07;;;;;;;4.10;1.40;;;;;;;5.88;80.09;98413.56;6303333;28;20293;-56
2024/02/21 06:09:09;;;;;;;3.07;1.40;;;;;;;5.78;84.53;98410.47;6303533;28;20301;-54
2024/02/21 06:12:11;;;;;;;5.13;1.40;;;;;;;5.57;85.97;98404.22;6306517;28;20188;-56
2024/02/21 06:15:14;;;;;;;7.67;1.53;;;;;;;5.41;87.47;98405.28;6299648;28;20205;-55
2024/02/21 06:18:18;;;;;;;4.93;1.80;;;;;;;5.54;79.32;98393.19;6314176;28;20185;-56
2024/02/21 06:21:20;;;;;;;4.67;1.70;;;;;;;5.76;81.64;98407.97;6306264;28;20696;-56
2024/02/21 06:24:22;;;;;;;5.63;1.50;;;;;;;5.78;79.48;98413.09;6313774;28;20206;-56
2024/02/21 06:27:24;;;;;;;6.80;1.60;;;;;;;5.55;79.09;98373.69;6309137;28;20217;-55
2024/02/21 06:30:27;;;;;;;7.67;1.90;;;;;;;5.76;78.63;98380.72;6306075;28;20328;-55
2024/02/21 06:33:29;;;;;;;6.27;1.37;;;;;;;6.03;75.56;98405.56;6302759;28;20197;-56
2024/02/21 06:36:31;;;;;;;7.03;2.00;;;;;;;6.01;77.48;98403.13;6307374;28;20189;-56
2024/02/21 06:39:36;;;;;;;3.77;1.30;;;;;;;6.10;77.70;98401.13;6302019;28;20189;-56
2024/02/21 06:42:38;;;;;;;4.47;1.60;;;;;;;6.02;80.23;98403.94;6300506;28;20224;-56
2024/02/21 06:45:40;;;;;;;4.83;1.43;;;;;;;5.75;79.71;98371.19;6308578;28;20284;-55
2024/02/21 06:48:42;;;;;;;4.13;1.50;;;;;;;6.30;75.92;98398.56;6313487;28;20269;-57
2024/02/21 06:51:48;;;;;;;4.77;1.40;;;;;;;6.47;72.25;98395.41;6313304;28;20197;-57
2024/02/21 06:54:51;;;;;;;3.43;1.40;;;;;;;6.59;73.95;98403.56;6303077;28;20201;-55
2024/02/21 06:57:53;;;;;;;5.10;1.30;;;;;;;6.66;72.09;98404.44;6306231;28;20196;-57
2024/02/21 07:00:55;;;;;;;3.87;1.50;;;;;;;6.53;74.95;98411.50;6299108;28;20201;-55
2024/02/21 07:03:57;;;;;;;5.40;1.90;;;;;;;6.42;74.73;98397.81;6305409;28;20214;-57
2024/02/21 07:06:59;;;;;;;6.67;1.87;;;;;;;6.51;73.15;98387.88;6303719;28;20205;-56
2024/02/21 07:10:02;;;;;;;3.43;1.60;;;;;;;6.36;72.35;98377.44;6291733;28;20201;-55
2024/02/21 07:13:04;;;;;;;4.40;1.60;;;;;;;6.50;74.63;98399.47;6311065;28;20182;-55
2024/02/21 07:16:07;;;;;;;3.27;1.20;;;;;;;6.55;72.98;98398.88;6299438;28;20196;-56
2024/02/21 07:19:09;;;;;;;2.40;1.10;;;;;;;6.57;71.13;98402.97;6314072;28;20189;-57
2024/02/21 07:22:11;;;;;;;3.03;1.30;;;;;;;6.44;73.59;98374.59;6313100;28;20200;-56
2024/02/21 07:25:13;;;;;;;5.10;1.10;;;;;;;6.49;74.85;98394.38;6312220;28;20687;-55
2024/02/21 07:28:16;;;;;;;4.57;1.20;;;;;;;6.51;73.99;98389.72;6302492;28;20298;-55
2024/02/21 07:31:19;;;;;;;6.50;1.40;;;;;;;6.51;76.28;98358.78;6298980;28;20196;-57
2024/02/21 07:34:21;;;;;;;2.70;1.30;;;;;;;6.66;81.48;98388.53;6306545;28;20299;-56
2024/02/21 07:37:23;;;;;;;4.17;1.17;;;;;;;6.79;76.42;98371.03;6306987;28;20189;-57
2024/02/21 07:40:25;;;;;;;7.87;2.07;;;;;;;6.88;75.74;98375.16;6320364;28;20193;-56
2024/02/21 07:43:27;;;;;;;6.03;1.40;;;;;;;6.98;80.72;98363.13;6312983;28;20193;-53
2024/02/21 07:46:30;;;;;;;2.50;1.43;;;;;;;7.05;70.33;98346.47;6318196;28;20188;-55
2024/02/21 07:49:33;;;;;;;3.57;1.53;;;;;;;7.33;70.06;98376.22;6306124;28;20198;-55
2024/02/21 07:52:35;;;;;;;3.60;1.30;;;;;;;7.29;74.17;98377.66;6300907;28;20200;-55
2024/02/21 07:55:37;;;;;;;5.57;1.33;;;;;;;7.42;76.39;98375.00;6306160;28;20665;-56
2024/02/21 07:58:40;;;;;;;5.07;1.17;;;;;;;7.29;76.87;98351.16;6312826;28;20190;-56
2024/02/21 08:01:44;;;;;;;3.23;1.13;;;;;;;7.60;76.34;98379.69;6307446;28;20565;-56
2024/02/21 08:04:46;;;;;;;3.83;1.60;;;;;;;7.81;68.56;98369.88;6307195;28;20198;-54
2024/02/21 08:07:49;;;;;;;7.97;1.90;;;;;;;7.92;68.47;98377.19;6308941;28;20301;-54
2024/02/21 08:10:51;;;;;;;4.97;1.53;;;;;;;7.78;68.46;98355.16;6306807;28;20283;-56
2024/02/21 08:13:54;;;;;;;2.77;1.27;;;;;;;7.92;64.16;98348.81;6311656;28;20841;-57
2024/02/21 08:16:56;;;;;;;3.53;1.10;;;;;;;8.07;66.73;98382.25;6311997;28;20709;-57
2024/02/21 08:19:58;;;;;;;5.27;1.70;;;;;;;8.27;63.36;98375.03;6313133;28;20194;-55
2024/02/21 08:23:01;;;;;;;7.00;1.67;;;;;;;8.43;61.93;98364.00;6313022;28;20229;-56
2024/02/21 08:26:04;;;;;;;5.07;1.50;;;;;;;8.32;65.68;98369.91;6305762;28;20194;-56
2024/02/21 08:29:06;;;;;;;2.87;1.20;;;;;;;8.39;64.91;98361.97;6307074;28;20206;-57
2024/02/21 08:32:08;;;;;;;4.87;1.73;;;;;;;8.54;67.13;98349.22;6305577;28;20201;-55
2024/02/21 08:35:12;;;;;;;2.70;1.13;;;;;;;8.96;61.30;98369.00;6308986;28;20239;-55
2024/02/21 08:38:14;;;;;;;4.60;1.53;;;;;;;9.05;58.88;98351.78;6307320;28;20186;-57
2024/02/21 08:41:16;;;;;;;3.70;1.13;;;;;;;9.13;59.63;98350.72;6308968;28;20756;-57
2024/02/21 08:44:19;;;;;;;2.70;1.03;;;;;;;9.07;59.68;98358.75;6307189;28;20274;-57
2024/02/21 08:47:21;;;;;;;5.87;1.40;;;;;;;9.10;59.58;98361.75;6300846;28;20217;-57
2024/02/21 08:50:23;;;;;;;5.70;1.50;;;;;;;9.15;59.28;98353.94;6299128;28;20568;-56
2024/02/21 08:53:31;;;;;;;4.00;1.40;;;;;;;9.09;60.62;98352.16;6312461;28;20225;-57
2024/02/21 08:56:33;;;;;;;3.90;1.20;;;;;;;9.04;61.18;98352.00;6313006;28;20579;-56
2024/02/21 08:59:36;;;;;;;4.47;1.40;;;;;;;9.25;58.62;98341.00;6306162;28;20498;-57
2024/02/21 09:02:40;;;;;;;4.90;1.53;;;;;;;9.26;57.69;98320.53;6306565;28;20574;-56
2024/02/21 09:05:43;;;;;;;3.23;1.20;;;;;;;9.50;57.44;98335.66;6306829;28;20321;-54
2024/02/21 09:08:45;;;;;;;5.03;1.60;;;;;;;9.65;58.76;98339.84;6305791;28;20221;-57
2024/02/21 09:11:48;;;;;;;4.13;1.43;;;;;;;9.95;63.21;98346.09;6313137;28;20208;-59
2024/02/21 09:14:50;;;;;;;4.30;1.43;;;;;;;10.09;56.88;98334.25;6313397;28;20651;-58
2024/02/21 09:17:52;;;;;;;6.77;1.93;;;;;;;10.24;58.84;98320.59;6334351;27;20188;-57
2024/02/21 09:20:55;;;;;;;4.10;1.50;;;;;;;10.40;58.05;98337.81;6295627;28;20201;-56
2024/02/21 09:23:57;;;;;;;4.40;1.40;;;;;;;10.20;56.41;98323.91;6307620;28;20612;-57
2024/02/21 09:27:01;;;;;;;6.73;1.60;;;;;;;9.99;56.78;98325.97;6306326;28;20208;-57
2024/02/21 09:30:05;;;;;;;3.30;1.43;;;;;;;9.97;57.71;98333.38;6303888;28;20186;-56
2024/02/21 09:33:07;;;;;;;5.23;1.77;;;;;;;9.68;55.84;98318.94;6306334;28;20282;-56
2024/02/21 09:36:09;;;;;;;4.33;1.23;;;;;;;9.66;58.38;98325.53;6303518;28;21127;-56
2024/02/21 09:39:14;;;;;;;6.57;1.50;;;;;;;9.41;57.80;98296.28;6299128;28;20196;-57
2024/02/21 09:42:20;;;;;;;3.00;1.27;;;;;;;9.55;58.55;98335.81;6311796;28;20321;-56
2024/02/21 09:45:24;;;;;;;5.13;1.40;;;;;;;9.31;55.70;98315.41;6308161;28;20979;-57
2024/02/21 09:49:05;;;;;;;7.63;1.77;;;;;;;9.26;57.81;98313.41;6303583;28;20806;-56
2024/02/21 09:52:07;;;;;;;5.50;1.40;;;;;;;9.29;57.55;98302.31;6298775;28;20191;-57
2024/02/21 09:55:14;;;;;;;2.20;1.20;;;;;;;9.57;57.51;98309.84;6310381;28;20206;-57
2024/02/21 09:58:16;;;;;;;5.83;1.80;;;;;;;9.84;57.06;98330.84;6305724;28;20186;-55
2024/02/21 10:01:19;;;;;;;5.23;1.70;;;;;;;9.80;55.63;98311.03;6305501;28;20552;-55
2024/02/21 10:04:35;;;;;;;7.83;1.77;;;;;;;10.18;58.38;98305.47;6304702;28;20271;-57
2024/02/21 10:07:39;;;;;;;7.03;1.70;;;;;;;10.63;56.74;98312.31;6306380;28;20610;-56
2024/02/21 10:10:46;;;;;;;10.73;1.87;;;;;;;10.93;55.07;98310.41;6312384;28;20835;-58
2024/02/21 10:13:49;;;;;;;5.60;1.33;;;;;;;10.52;52.47;98289.91;6302067;28;20289;-58
2024/02/21 10:17:02;;;;;;;6.03;1.80;;;;;;;10.43;52.93;98309.91;6309885;28;20208;-57
2024/02/21 10:20:12;;;;;;;4.97;1.60;;;;;;;10.69;54.65;98311.38;6299628;28;20570;-55
2024/02/21 10:23:15;;;;;;;4.10;1.33;;;;;;;10.54;53.26;98312.63;6311620;28;20189;-56
2024/02/21 10:26:18;;;;;;;4.63;1.40;;;;;;;10.62;53.80;98308.81;6310435;28;20224;-56
2024/02/21 10:29:20;;;;;;;5.07;1.23;;;;;;;10.47;54.01;98301.25;6303401;28;20223;-57
2024/02/21 10:32:22;;;;;;;3.93;1.60;;;;;;;10.67;54.91;98303.63;6306649;28;20199;-59
2024/02/21 10:35:30;;;;;;;2.10;0.80;;;;;;;10.47;53.61;98263.94;6303395;28;20203;-57
2024/02/21 10:38:33;;;;;;;5.33;1.67;;;;;;;10.80;53.84;98299.97;6298689;28;20213;-56
2024/02/21 10:41:38;;;;;;;3.93;1.83;;;;;;;11.09;52.58;98284.97;6312443;28;20236;-57
2024/02/21 10:44:45;;;;;;;4.73;1.50;;;;;;;11.17;53.48;98273.94;6302446;28;20192;-58
2024/02/21 10:47:55;;;;;;;4.10;1.37;;;;;;;11.25;52.47;98259.47;6308558;28;20224;-57
2024/02/21 10:51:08;;;;;;;5.97;1.50;;;;;;;11.35;51.04;98273.03;6304959;28;20212;-59
2024/02/21 10:54:35;;;;;;;5.00;1.87;;;;;;;11.15;52.56;98275.22;6301919;28;20236;-62
2024/02/21 10:57:38;;;;;;;4.67;1.40;;;;;;;11.24;50.12;98266.66;6313213;28;20683;-57
2024/02/21 11:00:40;;;;;;;4.93;1.60;;;;;;;11.51;48.94;98276.84;6302352;28;20213;-56
2024/02/21 11:03:45;;;;;;;5.70;1.60;;;;;;;11.43;48.75;98258.53;6294692;28;20278;-57
2024/02/21 11:06:48;;;;;;;2.00;1.30;;;;;;;11.13;49.76;98250.63;6312056;28;20723;-55
2024/02/21 11:09:52;;;;;;;8.37;1.53;;;;;;;10.86;48.59;98267.06;6312479;28;20571;-55
2024/02/21 11:13:08;;;;;;;5.87;1.67;;;;;;;10.68;51.21;98265.28;6319363;28;20674;-57
2024/02/21 11:16:11;;;;;;;5.10;1.47;;;;;;;10.69;50.26;98260.75;6317438;28;20686;-57
2024/02/21 11:19:21;;;;;;;3.20;1.13;;;;;;;10.75;51.59;98251.88;6315897;28;20190;-56
2024/02/21 11:22:29;;;;;;;6.03;1.30;;;;;;;10.75;53.29;98251.88;6304969;28;20187;-58
2024/02/21 11:25:33;;;;;;;5.50;1.60;;;;;;;10.70;51.72;98249.91;6308893;28;20193;-57
2024/02/21 11:28:37;;;;;;;4.00;1.23;;;;;;;10.67;50.41;98252.19;6309754;28;20665;-56
2024/02/21 11:31:44;;;;;;;2.43;1.10;;;;;;;10.67;53.88;98247.69;6309423;28;20201;-57
2024/02/21 11:35:05;;;;;;;5.33;1.60;;;;;;;10.70;51.34;98238.44;6311757;28;20275;-56
2024/02/21 11:38:16;;;;;;;3.40;1.33;;;;;;;10.68;52.89;98227.16;6312400;28;20189;-55
2024/02/21 11:41:20;;;;;;;2.97;1.23;;;;;;;10.74;52.34;98212.94;6311469;28;20328;-58
2024/02/21 11:44:22;;;;;;;3.60;1.23;;;;;;;10.69;52.48;98210.97;6309287;28;20648;-56
2024/02/21 11:47:25;;;;;;;4.40;1.30;;;;;;;10.74;52.54;98205.75;6311299;28;20192;-56
2024/02/21 11:50:27;;;;;;;4.93;1.37;;;;;;;10.83;50.52;98200.88;6309261;28;20335;-56
2024/02/21 11:53:30;;;;;;;3.37;1.13;;;;;;;10.80;50.42;98183.53;6305935;28;20213;-56
2024/02/21 11:56:36;;;;;;;2.70;1.23;;;;;;;10.81;50.75;98174.47;6308909;28;20198;-53
2024/02/21 11:59:40;;;;;;;3.67;1.20;;;;;;;10.67;52.45;98172.25;6306106;28;20202;-57
2024/02/21 12:02:45;;;;;;;4.40;1.53;;;;;;;10.53;53.05;98158.34;6306244;28;20201;-55
2024/02/21 12:05:48;;;;;;;2.70;1.50;;;;;;;10.64;50.77;98178.03;6302981;28;20193;-57
2024/02/21 12:08:50;;;;;;;6.03;1.80;;;;;;;10.63;49.93;98169.22;6304075;28;20686;-57
2024/02/21 12:12:07;;;;;;;5.97;1.73;;;;;;;10.48;52.16;98175.00;6314131;28;20291;-57
2024/02/21 12:15:09;;;;;;;1.67;1.27;;;;;;;10.52;51.80;98160.19;6304021;28;20292;-57
2024/02/21 12:18:11;;;;;;;3.67;1.43;;;;;;;10.52;50.18;98151.38;6309327;28;20577;-57
2024/02/21 12:21:15;;;;;;;4.13;1.20;;;;;;;10.66;51.40;98152.81;6299169;28;20197;-57
2024/02/21 12:24:27;;;;;;;4.47;1.20;;;;;;;10.70;50.45;98147.81;6305771;28;20562;-55
2024/02/21 12:27:30;;;;;;;3.97;1.27;;;;;;;10.84;50.43;98152.69;6305274;28;20397;-55
2024/02/21 12:30:34;;;;;;;3.03;1.00;;;;;;;10.55;50.12;98130.44;6308137;28;20207;-54
2024/02/21 12:33:36;;;;;;;4.13;1.30;;;;;;;10.70;51.27;98155.81;6311223;28;20193;-57
2024/02/21 12:36:49;;;;;;;2.73;0.90;;;;;;;10.81;50.21;98152.34;6299624;28;20202;-53
2024/02/21 12:39:51;;;;;;;3.40;1.10;;;;;;;10.62;50.06;98150.81;6310256;28;20189;-56
2024/02/21 12:42:53;;;;;;;3.57;1.27;;;;;;;10.39;51.05;98149.72;6312560;28;20222;-56
2024/02/21 12:45:56;;;;;;;3.03;1.37;;;;;;;10.38;49.98;98142.78;6300833;28;20207;-57
2024/02/21 12:48:58;;;;;;;3.20;1.63;;;;;;;10.58;50.98;98135.28;6307609;28;20212;-56
2024/02/21 12:52:00;;;;;;;2.30;1.30;;;;;;;10.67;51.76;98129.63;6305699;28;20265;-54
2024/02/21 12:55:02;;;;;;;4.83;1.47;;;;;;;10.69;52.88;98125.69;6306292;28;20660;-54
2024/02/21 12:58:06;;;;;;;3.77;1.20;;;;;;;10.70;50.90;98126.50;6305209;28;20188;-56
2024/02/21 13:01:09;;;;;;;4.43;1.60;;;;;;;10.61;51.49;98120.72;6305433;28;20202;-56
2024/02/21 13:04:11;;;;;;;4.20;1.37;;;;;;;10.63;51.31;98115.13;6310329;28;20839;-57
2024/02/21 13:07:14;;;;;;;5.93;1.47;;;;;;;10.98;51.81;98117.78;6312193;28;20212;-57
2024/02/21 13:10:16;;;;;;;3.57;1.20;;;;;;;10.93;50.39;98104.34;6316072;28;20710;-55
2024/02/21 13:13:18;;;;;;;4.70;1.40;;;;;;;10.84;51.30;98093.25;6310663;28;20683;-57
2024/02/21 13:16:20;;;;;;;3.27;1.40;;;;;;;10.81;51.02;98083.06;6303196;28;20239;-56
2024/02/21 13:19:22;;;;;;;2.43;1.07;;;;;;;11.00;49.29;98086.41;6310591;28;20243;-58
2024/02/21 13:22:28;;;;;;;5.97;1.60;;;;;;;10.91;50.31;98083.28;6307030;28;20242;-56
2024/02/21 13:25:30;;;;;;;6.00;1.83;;;;;;;10.91;51.62;98075.28;6295185;28;20190;-57
2024/02/21 13:28:32;;;;;;;3.40;1.40;;;;;;;11.04;50.17;98067.03;6306085;28;20203;-54
2024/02/21 13:31:34;;;;;;;2.73;1.33;;;;;;;11.30;49.41;98057.69;6309186;28;20191;-58
2024/02/21 13:34:36;;;;;;;2.80;1.10;;;;;;;11.11;50.52;98061.56;6302468;28;20232;-54
2024/02/21 13:37:40;;;;;;;4.53;1.30;;;;;;;11.04;50.36;98061.69;6300523;28;20195;-57
2024/02/21 13:40:42;;;;;;;2.20;1.00;;;;;;;10.86;49.66;98051.19;6297839;28;20251;-56
2024/02/21 13:43:46;;;;;;;2.73;1.33;;;;;;;10.92;51.56;98047.56;6303893;28;20207;-54
2024/02/21 13:46:48;;;;;;;2.60;1.00;;;;;;;11.10;49.47;98030.63;6315300;28;20194;-55
2024/02/21 13:49:50;;;;;;;4.10;1.27;;;;;;;11.10;49.89;98028.75;6308244;28;20635;-54
2024/02/21 13:52:53;;;;;;;7.10;1.70;;;;;;;11.14;52.76;98029.09;6302119;28;20288;-57
2024/02/21 13:55:55;;;;;;;3.50;1.20;;;;;;;11.19;49.04;98023.06;6302391;28;20186;-57
2024/02/21 13:59:00;;;;;;;3.03;0.90;;;;;;;11.33;49.00;98022.53;6304857;28;20185;-55
2024/02/21 14:02:03;;;;;;;3.43;1.50;;;;;;;11.24;48.96;98007.97;6308397;28;20252;-57
2024/02/21 14:05:06;;;;;;;3.13;1.37;;;;;;;11.54;49.26;98028.25;6311123;28;20605;-58
2024/02/21 14:08:08;;;;;;;2.97;1.20;;;;;;;11.59;48.37;98023.00;6313481;28;20630;-57
2024/02/21 14:11:10;;;;;;;2.43;1.07;;;;;;;11.69;51.07;98025.06;6314113;28;20564;-56
2024/02/21 14:14:15;;;;;;;2.90;1.30;;;;;;;11.46;50.24;98012.63;6298577;28;20687;-57
2024/02/21 14:17:18;;;;;;;1.77;1.00;;;;;;;11.45;52.14;98003.00;6294302;28;20895;-56
2024/02/21 14:20:20;;;;;;;1.73;0.90;;;;;;;11.36;48.71;98003.38;6310228;28;20190;-54
2024/02/21 14:23:22;;;;;;;3.40;1.27;;;;;;;11.28;49.47;97994.94;6308127;28;20196;-58
2024/02/21 14:26:25;;;;;;;5.20;1.13;;;;;;;11.35;48.50;97999.09;6303332;28;20197;-56
2024/02/21 14:29:27;;;;;;;3.63;1.27;;;;;;;11.40;53.43;98005.59;6305030;28;20217;-57